Time;durP1;ratioP1;P1;durP2;ratioP2;P2;SDS_P1;SDS_P2;PMS_P1;PMS_P2;Temp;Humidity;BMP_temperature;BMP_pressure;BME280_temperature;BME280_humidity;BME280_pressure;Samples;Min_cycle;Max_cycle;Signal;HPM_P1;HPM_P2
2023/06/07 00:01:47;;;;;;;8.23;5.80;;;22.30;50.50;;;;;;4993341;28;20069;-52
2023/06/07 00:04:16;;;;;;;15.48;7.88;;;22.30;50.60;;;;;;4991818;28;20084;-53
2023/06/07 00:06:43;;;;;;;10.32;7.25;;;22.20;50.60;;;;;;4983469;28;20095;-51
2023/06/07 00:09:10;;;;;;;10.68;7.65;;;22.20;50.80;;;;;;4993488;28;20544;-54
2023/06/07 00:11:42;;;;;;;11.02;6.57;;;22.10;50.70;;;;;;4992711;28;20602;-54
2023/06/07 00:14:11;;;;;;;12.50;6.90;;;22.10;50.80;;;;;;4984100;28;20035;-55
2023/06/07 00:16:38;;;;;;;8.57;7.18;;;22.10;50.90;;;;;;4987965;28;20235;-52
2023/06/07 00:19:06;;;;;;;9.70;6.18;;;22.00;50.90;;;;;;4986190;28;20038;-55
2023/06/07 00:21:38;;;;;;;9.45;6.50;;;22.10;51.00;;;;;;4993029;28;20045;-54
2023/06/07 00:24:05;;;;;;;8.77;6.35;;;21.90;51.00;;;;;;4986249;28;20129;-55
2023/06/07 00:26:31;;;;;;;10.65;6.65;;;21.90;51.10;;;;;;4982079;28;20043;-55
2023/06/07 00:29:02;;;;;;;9.95;6.18;;;21.90;51.20;;;;;;4985372;28;20084;-54
2023/06/07 00:31:32;;;;;;;9.27;6.28;;;21.80;51.20;;;;;;4972155;28;20062;-53
2023/06/07 00:34:04;;;;;;;11.85;7.60;;;21.70;51.50;;;;;;4981283;28;20070;-55
2023/06/07 00:36:32;;;;;;;8.10;6.30;;;21.70;51.50;;;;;;4988940;28;20077;-55
2023/06/07 00:39:02;;;;;;;10.07;6.72;;;21.60;51.30;;;;;;4975311;28;20076;-54
2023/06/07 00:41:31;;;;;;;8.70;6.82;;;21.50;51.50;;;;;;4974817;28;20046;-53
2023/06/07 00:43:59;;;;;;;9.63;6.03;;;21.50;51.40;;;;;;4991905;28;20066;-52
2023/06/07 00:46:28;;;;;;;10.77;6.25;;;21.40;51.30;;;;;;4992706;28;20103;-53
2023/06/07 00:48:59;;;;;;;7.50;6.15;;;21.30;51.50;;;;;;4991405;28;20046;-53
2023/06/07 00:51:31;;;;;;;7.60;5.43;;;21.20;51.50;;;;;;4970543;28;20047;-53
2023/06/07 00:54:02;;;;;;;7.13;5.82;;;21.10;51.40;;;;;;4972532;28;21144;-53
2023/06/07 00:56:31;;;;;;;6.65;5.32;;;21.00;51.60;;;;;;4972801;28;20054;-49
2023/06/07 00:58:58;;;;;;;5.47;4.97;;;20.90;51.70;;;;;;4992372;28;20046;-52
2023/06/07 01:01:27;;;;;;;7.97;5.70;;;20.80;51.70;;;;;;4973663;28;20061;-53
2023/06/07 01:03:57;;;;;;;9.77;6.07;;;20.70;51.70;;;;;;4969062;28;20142;-53
2023/06/07 01:06:24;;;;;;;6.80;5.47;;;20.60;51.70;;;;;;4992474;28;20042;-52
2023/06/07 01:08:53;;;;;;;5.97;5.32;;;20.60;51.80;;;;;;4975101;28;20043;-52
2023/06/07 01:11:25;;;;;;;10.15;5.25;;;20.40;51.80;;;;;;4968821;28;20526;-53
2023/06/07 01:13:57;;;;;;;6.82;5.60;;;20.30;51.90;;;;;;4973881;28;20050;-50
2023/06/07 01:16:33;;;;;;;6.80;5.90;;;20.20;52.00;;;;;;4975041;28;20133;-52
2023/06/07 01:19:04;;;;;;;8.40;5.40;;;20.10;52.00;;;;;;4989673;28;20845;-51
2023/06/07 01:21:37;;;;;;;6.18;5.10;;;20.00;52.30;;;;;;4967335;28;20097;-53
2023/06/07 01:24:04;;;;;;;8.35;6.22;;;19.90;52.70;;;;;;4971010;28;20135;-53
2023/06/07 01:26:33;;;;;;;9.23;5.45;;;19.90;52.60;;;;;;4971910;28;20443;-53
2023/06/07 01:29:05;;;;;;;6.43;5.55;;;19.80;52.80;;;;;;4974566;28;20069;-52
2023/06/07 01:31:35;;;;;;;7.03;5.43;;;19.70;52.90;;;;;;4973943;28;20042;-52
2023/06/07 01:34:04;;;;;;;7.28;6.43;;;19.70;53.70;;;;;;4988162;28;20046;-52
2023/06/07 01:36:32;;;;;;;8.20;5.53;;;19.60;53.10;;;;;;4985403;28;20051;-51
2023/06/07 01:39:02;;;;;;;6.60;5.22;;;19.50;53.20;;;;;;4992084;28;20054;-53
2023/06/07 01:41:30;;;;;;;7.53;5.57;;;19.50;53.20;;;;;;4973186;28;20053;-53
2023/06/07 01:44:00;;;;;;;6.10;5.45;;;19.40;53.20;;;;;;4993127;23;20081;-44
2023/06/07 01:46:28;;;;;;;7.70;5.15;;;19.30;54.00;;;;;;5017789;28;20092;-45
2023/06/07 01:48:59;;;;;;;6.57;5.43;;;19.30;53.30;;;;;;5029811;28;20448;-45
2023/06/07 01:51:28;;;;;;;7.90;5.30;;;19.20;53.20;;;;;;5013113;28;20072;-45
2023/06/07 01:53:57;;;;;;;6.05;5.55;;;19.20;53.30;;;;;;5010387;28;20104;-44
2023/06/07 01:57:03;;;;;;;8.20;6.15;;;19.10;53.70;;;;;;5010669;28;20034;-45
2023/06/07 02:00:05;;;;;;;6.78;5.50;;;19.10;54.20;;;;;;4986446;28;20113;-44
2023/06/07 02:02:57;;;;;;;8.25;6.22;;;19.00;54.20;;;;;;5006800;28;20120;-46
2023/06/07 02:05:31;;;;;;;6.95;4.90;;;18.90;53.50;;;;;;4998037;28;20046;-46
2023/06/07 02:08:12;;;;;;;8.57;5.35;;;18.90;53.90;;;;;;5002948;28;20133;-45
2023/06/07 02:10:41;;;;;;;7.20;5.25;;;18.80;54.20;;;;;;4992487;28;20093;-46
2023/06/07 02:13:09;;;;;;;7.18;5.55;;;18.80;54.00;;;;;;5010063;28;20149;-45
2023/06/07 02:15:37;;;;;;;7.75;5.25;;;18.70;54.10;;;;;;5009468;28;20034;-46
2023/06/07 02:18:08;;;;;;;6.55;5.40;;;18.70;54.10;;;;;;4991410;28;20042;-45
2023/06/07 02:20:35;;;;;;;7.50;5.00;;;18.60;54.10;;;;;;4992910;28;20057;-45
2023/06/07 02:23:06;;;;;;;6.05;5.45;;;18.60;54.20;;;;;;5010517;28;20410;-47
2023/06/07 02:25:34;;;;;;;8.50;5.15;;;18.60;54.10;;;;;;5002107;28;20518;-43
2023/06/07 02:28:03;;;;;;;7.75;5.38;;;18.50;54.10;;;;;;5009424;28;20046;-44
2023/06/07 02:30:30;;;;;;;6.28;4.90;;;18.50;54.20;;;;;;5009240;28;20506;-45
2023/06/07 02:33:02;;;;;;;8.50;4.72;;;18.40;54.40;;;;;;5008111;28;20573;-44
2023/06/07 02:35:30;;;;;;;6.82;5.05;;;18.40;54.30;;;;;;5008360;28;20045;-46
2023/06/07 02:37:57;;;;;;;6.32;5.05;;;18.30;54.20;;;;;;5009335;28;20096;-44
2023/06/07 02:40:25;;;;;;;6.85;5.63;;;18.30;54.40;;;;;;4991529;28;20035;-45
2023/06/07 02:42:57;;;;;;;6.00;5.03;;;18.30;54.40;;;;;;4992004;28;20125;-45
2023/06/07 02:45:31;;;;;;;6.57;5.10;;;18.30;54.30;;;;;;4992215;28;20103;-47
2023/06/07 02:48:00;;;;;;;7.85;5.25;;;18.20;54.50;;;;;;5014323;28;20065;-45
2023/06/07 02:50:28;;;;;;;6.38;5.18;;;18.20;54.40;;;;;;4987315;28;20037;-44
2023/06/07 02:52:56;;;;;;;8.57;5.80;;;18.10;54.40;;;;;;4992907;28;20038;-45
2023/06/07 02:55:25;;;;;;;7.15;5.15;;;18.10;54.70;;;;;;5004931;28;20160;-45
2023/06/07 02:57:57;;;;;;;7.38;5.03;;;18.10;54.70;;;;;;5010917;28;20049;-45
2023/06/07 03:00:32;;;;;;;7.63;5.00;;;18.00;54.80;;;;;;4992915;28;20529;-46
2023/06/07 03:03:05;;;;;;;6.05;4.72;;;18.00;54.60;;;;;;4992780;28;20042;-47
2023/06/07 03:05:35;;;;;;;8.10;5.63;;;18.00;54.50;;;;;;5003445;28;20530;-46
2023/06/07 03:08:10;;;;;;;5.85;4.50;;;17.90;54.60;;;;;;4977996;28;20502;-47
2023/06/07 03:10:39;;;;;;;6.63;5.93;;;17.90;54.60;;;;;;5009562;28;20054;-45
2023/06/07 03:13:13;;;;;;;6.03;5.18;;;17.80;54.70;;;;;;5005935;28;20034;-45
2023/06/07 03:15:42;;;;;;;6.55;4.63;;;17.80;54.80;;;;;;4972683;28;20103;-45
2023/06/07 03:18:15;;;;;;;7.45;5.40;;;17.70;54.80;;;;;;5009716;28;20065;-45
2023/06/07 03:20:47;;;;;;;6.22;4.85;;;17.70;55.10;;;;;;4992273;28;20057;-45
2023/06/07 03:23:19;;;;;;;6.70;5.07;;;17.70;55.10;;;;;;5001510;28;20038;-45
2023/06/07 03:25:56;;;;;;;7.30;6.13;;;17.70;55.20;;;;;;5000960;28;20038;-46
2023/06/07 03:28:27;;;;;;;5.95;5.15;;;17.70;55.50;;;;;;5003613;28;20069;-45
2023/06/07 03:30:54;;;;;;;5.47;4.70;;;17.60;55.40;;;;;;5009864;28;20494;-43
2023/06/07 03:33:38;;;;;;;7.18;5.00;;;17.60;55.50;;;;;;5008344;28;20042;-45
2023/06/07 03:36:11;;;;;;;7.43;4.82;;;17.60;55.60;;;;;;4989531;28;20461;-44
2023/06/07 03:38:48;;;;;;;7.15;5.25;;;17.60;55.70;;;;;;5008822;28;20049;-48
2023/06/07 03:41:14;;;;;;;9.17;5.93;;;17.60;56.10;;;;;;4991497;28;20061;-44
2023/06/07 03:43:41;;;;;;;6.72;5.13;;;17.50;56.00;;;;;;4994532;28;20053;-44
2023/06/07 03:46:13;;;;;;;7.13;5.10;;;17.50;56.30;;;;;;4992617;28;20172;-45
2023/06/07 03:48:45;;;;;;;8.88;5.93;;;17.50;56.70;;;;;;5009426;28;20046;-44
2023/06/07 03:51:12;;;;;;;5.70;5.13;;;17.50;56.70;;;;;;5007467;28;20034;-45
2023/06/07 03:53:44;;;;;;;5.65;5.07;;;17.50;56.90;;;;;;4991235;28;20495;-45
2023/06/07 03:56:18;;;;;;;9.60;5.32;;;17.60;57.50;;;;;;5001942;28;20048;-47
2023/06/07 03:59:01;;;;;;;8.05;5.95;;;17.60;57.50;;;;;;5008891;28;20050;-47
2023/06/07 04:01:32;;;;;;;10.70;6.32;;;17.60;58.00;;;;;;5008101;28;20045;-45
2023/06/07 04:04:00;;;;;;;6.07;5.13;;;17.70;58.10;;;;;;4989273;28;20056;-46
2023/06/07 04:06:28;;;;;;;9.18;5.55;;;17.70;58.40;;;;;;5008767;28;20038;-47
2023/06/07 04:09:08;;;;;;;7.28;6.00;;;17.70;58.60;;;;;;5008721;28;20129;-47
2023/06/07 04:11:37;;;;;;;10.68;6.40;;;17.80;58.80;;;;;;4991874;28;20038;-44
2023/06/07 04:14:08;;;;;;;9.18;6.15;;;17.90;59.00;;;;;;4992373;28;20046;-46
2023/06/07 04:16:37;;;;;;;10.32;7.18;;;18.00;59.20;;;;;;5007885;28;20070;-45
2023/06/07 04:19:06;;;;;;;7.22;6.20;;;18.00;59.30;;;;;;5011980;28;20054;-44
2023/06/07 04:21:35;;;;;;;9.52;6.45;;;18.10;59.40;;;;;;5011906;28;20073;-45
2023/06/07 04:24:07;;;;;;;10.00;6.22;;;18.20;59.30;;;;;;5011241;28;20042;-45
2023/06/07 04:26:35;;;;;;;12.40;7.45;;;18.20;59.20;;;;;;5012163;28;20454;-44
2023/06/07 04:29:07;;;;;;;9.95;6.32;;;18.30;59.20;;;;;;5013029;28;20075;-48
2023/06/07 04:31:39;;;;;;;10.15;6.72;;;18.40;59.00;;;;;;5011713;28;20038;-45
2023/06/07 04:34:09;;;;;;;12.25;6.18;;;18.50;59.00;;;;;;4995132;28;20503;-45
2023/06/07 04:36:49;;;;;;;9.75;5.97;;;18.60;58.90;;;;;;4995144;28;20041;-44
2023/06/07 04:39:20;;;;;;;;;;;18.60;59.00;;;;;;4976996;28;20050;-44
2023/06/07 04:41:52;;;;;;;8.65;5.78;;;18.80;58.40;;;;;;5000451;28;19922;-46
2023/06/07 04:44:28;;;;;;;10.93;6.50;;;18.80;58.20;;;;;;4982494;28;20050;-46
2023/06/07 04:47:00;;;;;;;9.13;6.28;;;18.90;58.50;;;;;;4992809;28;20089;-46
2023/06/07 04:49:38;;;;;;;8.57;6.63;;;18.90;58.70;;;;;;5011727;28;20042;-46
2023/06/07 04:52:05;;;;;;;10.23;6.43;;;19.00;58.40;;;;;;4995204;28;20038;-47
2023/06/07 04:54:36;;;;;;;8.65;6.47;;;19.00;58.30;;;;;;4992586;28;20502;-44
2023/06/07 04:57:08;;;;;;;10.98;6.65;;;19.10;58.20;;;;;;4993622;28;20136;-45
2023/06/07 04:59:41;;;;;;;8.60;6.03;;;19.20;58.30;;;;;;5011434;28;20049;-46
2023/06/07 05:02:16;;;;;;;10.23;6.57;;;19.30;58.10;;;;;;5011603;28;20116;-46
2023/06/07 05:04:46;;;;;;;12.60;7.30;;;19.30;57.80;;;;;;5010733;28;20066;-44
2023/06/07 05:07:14;;;;;;;10.85;6.13;;;19.40;57.80;;;;;;5011078;28;20038;-44
2023/06/07 05:09:49;;;;;;;9.80;6.50;;;19.40;57.70;;;;;;5011279;28;20042;-45
2023/06/07 05:12:18;;;;;;;9.07;6.53;;;19.50;57.50;;;;;;4994596;28;20042;-45
2023/06/07 05:14:45;;;;;;;7.63;5.75;;;19.50;57.40;;;;;;4997385;28;20421;-47
2023/06/07 05:17:19;;;;;;;9.07;6.63;;;19.60;57.40;;;;;;5011072;28;20050;-45
2023/06/07 05:19:50;;;;;;;9.85;7.25;;;19.50;57.10;;;;;;5010657;28;20395;-45
2023/06/07 05:22:21;;;;;;;7.78;6.00;;;19.60;57.00;;;;;;5005597;28;20042;-49
2023/06/07 05:24:49;;;;;;;7.23;6.47;;;19.60;57.00;;;;;;4988594;28;20050;-44
2023/06/07 05:27:19;;;;;;;10.40;6.07;;;19.60;56.90;;;;;;4994714;28;20288;-43
2023/06/07 05:29:46;;;;;;;11.80;7.03;;;19.70;57.00;;;;;;5010389;28;20125;-47
2023/06/07 05:32:13;;;;;;;9.93;6.68;;;19.70;56.80;;;;;;5009930;28;20073;-46
2023/06/07 05:34:40;;;;;;;12.02;7.63;;;19.70;56.80;;;;;;4994301;28;20050;-46
2023/06/07 05:37:13;;;;;;;12.70;6.97;;;19.70;56.90;;;;;;5012185;28;20042;-45
2023/06/07 05:39:45;;;;;;;11.15;6.68;;;19.70;57.00;;;;;;5012270;28;20038;-46
2023/06/07 05:42:12;;;;;;;9.35;6.65;;;19.70;57.10;;;;;;5009211;28;20046;-47
2023/06/07 05:44:48;;;;;;;6.85;6.15;;;19.70;57.10;;;;;;5010583;28;20056;-46
2023/06/07 05:47:20;;;;;;;12.38;7.13;;;19.80;57.40;;;;;;5010287;28;20053;-46
2023/06/07 05:49:47;;;;;;;9.73;6.18;;;19.80;57.00;;;;;;5010729;28;20046;-45
2023/06/07 05:52:15;;;;;;;10.65;6.72;;;19.80;56.90;;;;;;4990035;28;20041;-47
2023/06/07 05:54:49;;;;;;;12.35;7.40;;;19.80;56.60;;;;;;5008633;28;20038;-47
2023/06/07 05:57:16;;;;;;;10.20;6.13;;;19.90;56.90;;;;;;5006635;28;20580;-46
2023/06/07 05:59:43;;;;;;;12.00;7.15;;;19.90;56.50;;;;;;4979778;28;20057;-45
2023/06/07 06:02:15;;;;;;;8.40;6.57;;;19.90;56.50;;;;;;5009409;28;20064;-46
2023/06/07 06:04:44;;;;;;;11.68;7.43;;;20.00;56.40;;;;;;5006628;28;20050;-45
2023/06/07 06:07:14;;;;;;;9.48;6.72;;;20.00;56.30;;;;;;5011576;28;20121;-45
2023/06/07 06:09:41;;;;;;;9.52;6.75;;;20.10;56.30;;;;;;5011146;28;20048;-45
2023/06/07 06:12:10;;;;;;;8.70;6.90;;;20.10;56.20;;;;;;5008813;28;20515;-45
2023/06/07 06:14:39;;;;;;;10.40;6.97;;;20.10;56.40;;;;;;5011331;28;20037;-45
2023/06/07 06:17:09;;;;;;;11.10;7.32;;;20.10;56.30;;;;;;5011548;28;20490;-46
2023/06/07 06:19:36;;;;;;;8.07;6.75;;;20.20;56.60;;;;;;5005316;28;20450;-45
2023/06/07 06:22:05;;;;;;;9.88;7.30;;;20.30;56.40;;;;;;5001068;28;20050;-46
2023/06/07 06:24:37;;;;;;;10.43;6.53;;;20.40;56.20;;;;;;5009051;28;20122;-44
2023/06/07 06:27:06;;;;;;;10.85;8.13;;;20.40;55.90;;;;;;5011172;28;20537;-46
2023/06/07 06:29:32;;;;;;;11.00;7.50;;;20.50;55.80;;;;;;5011112;28;20073;-45
2023/06/07 06:32:07;;;;;;;8.82;7.68;;;20.60;55.50;;;;;;5011142;28;20042;-49
2023/06/07 06:34:36;;;;;;;12.93;7.78;;;20.60;55.30;;;;;;5010294;28;20514;-48
2023/06/07 06:37:05;;;;;;;12.57;7.70;;;20.70;55.00;;;;;;5006171;28;20117;-46
2023/06/07 06:39:37;;;;;;;9.87;7.53;;;20.70;54.80;;;;;;5011203;28;20052;-45
2023/06/07 06:42:06;;;;;;;13.57;7.28;;;20.70;54.50;;;;;;5009968;28;20042;-47
2023/06/07 06:44:53;;;;;;;12.40;7.13;;;20.70;54.60;;;;;;4988366;28;20078;-45
2023/06/07 06:47:25;;;;;;;10.23;6.68;;;20.80;54.60;;;;;;5010668;28;20045;-49
2023/06/07 06:49:53;;;;;;;11.48;8.13;;;20.80;54.70;;;;;;5011127;28;20418;-44
2023/06/07 06:52:20;;;;;;;11.50;8.52;;;20.80;54.60;;;;;;5010362;28;20038;-44
2023/06/07 06:54:46;;;;;;;12.75;8.80;;;20.90;54.60;;;;;;5009492;28;20050;-46
2023/06/07 06:57:15;;;;;;;13.73;8.50;;;20.90;54.60;;;;;;5005958;28;20128;-44
2023/06/07 06:59:42;;;;;;;11.05;7.43;;;20.90;54.40;;;;;;5010889;28;20052;-46
2023/06/07 07:02:11;;;;;;;12.10;7.32;;;21.00;54.20;;;;;;5010974;28;20120;-44
2023/06/07 07:04:41;;;;;;;10.77;8.45;;;21.10;54.40;;;;;;5009851;28;20042;-47
2023/06/07 07:07:21;;;;;;;8.73;7.15;;;21.20;54.20;;;;;;5010362;28;20061;-47
2023/06/07 07:09:49;;;;;;;12.52;8.15;;;21.20;54.10;;;;;;5010507;28;20134;-48
2023/06/07 07:12:21;;;;;;;13.52;8.20;;;21.30;53.80;;;;;;5010077;28;20041;-45
2023/06/07 07:14:55;;;;;;;12.38;7.70;;;21.40;53.70;;;;;;5010471;28;20045;-48
2023/06/07 07:17:29;;;;;;;9.57;8.55;;;21.40;53.70;;;;;;5010915;28;20057;-45
2023/06/07 07:19:55;;;;;;;10.07;6.65;;;21.50;53.50;;;;;;5010679;28;20136;-46
2023/06/07 07:22:25;;;;;;;10.60;7.85;;;21.50;53.60;;;;;;5009395;28;20041;-46
2023/06/07 07:24:55;;;;;;;10.13;7.22;;;21.50;53.70;;;;;;5004604;28;20108;-45
2023/06/07 07:27:26;;;;;;;11.95;8.88;;;21.60;53.50;;;;;;5010527;28;20530;-47
2023/06/07 07:30:02;;;;;;;11.20;6.95;;;21.60;53.10;;;;;;5010369;28;20052;-49
2023/06/07 07:32:33;;;;;;;9.73;8.13;;;21.60;53.10;;;;;;5009782;28;20068;-47
2023/06/07 07:35:00;;;;;;;10.77;8.38;;;21.70;53.10;;;;;;5005460;28;20096;-47
2023/06/07 07:37:28;;;;;;;12.27;8.07;;;21.70;53.00;;;;;;5010782;28;20092;-46
2023/06/07 07:39:58;;;;;;;10.57;7.72;;;21.70;53.10;;;;;;5010395;28;20129;-47
2023/06/07 07:42:24;;;;;;;11.60;8.38;;;21.70;53.20;;;;;;5009432;28;20124;-45
2023/06/07 07:44:53;;;;;;;12.23;7.75;;;21.70;53.00;;;;;;5009866;28;20683;-47
2023/06/07 07:47:19;;;;;;;11.20;8.55;;;21.70;53.10;;;;;;5037946;22;20057;-52
2023/06/07 07:49:47;;;;;;;13.70;7.68;;;21.70;53.20;;;;;;5029800;28;20042;-51
2023/06/07 07:52:16;;;;;;;13.40;8.75;;;21.70;52.90;;;;;;5031371;28;20465;-53
2023/06/07 07:54:51;;;;;;;12.27;7.93;;;21.70;52.90;;;;;;5029315;28;20107;-51
2023/06/07 07:57:19;;;;;;;13.88;8.40;;;21.80;53.10;;;;;;5033712;28;20064;-52
2023/06/07 07:59:46;;;;;;;10.88;8.48;;;21.80;52.90;;;;;;5033761;28;20045;-52
2023/06/07 08:02:13;;;;;;;11.93;7.80;;;21.80;52.80;;;;;;5031305;28;20039;-53
2023/06/07 08:04:41;;;;;;;12.23;7.85;;;21.80;52.70;;;;;;5027961;28;20072;-53
2023/06/07 08:07:08;;;;;;;13.13;9.20;;;21.80;53.20;;;;;;5033543;28;20053;-53
2023/06/07 08:09:35;;;;;;;15.35;8.95;;;21.70;52.60;;;;;;5032103;28;20547;-51
2023/06/07 08:12:04;;;;;;;12.27;7.75;;;21.70;53.00;;;;;;5023569;28;20092;-53
2023/06/07 08:14:30;;;;;;;14.10;8.27;;;21.70;53.30;;;;;;5025756;28;20047;-53
2023/06/07 08:16:59;;;;;;;10.23;7.68;;;21.80;52.70;;;;;;5033232;28;20123;-52
2023/06/07 08:19:27;;;;;;;11.35;8.55;;;21.80;52.70;;;;;;5029212;28;20058;-51
2023/06/07 08:21:54;;;;;;;10.93;7.78;;;21.80;52.50;;;;;;5025169;28;20121;-52
2023/06/07 08:24:21;;;;;;;11.50;8.93;;;21.70;52.50;;;;;;5027290;28;20095;-51
2023/06/07 08:26:49;;;;;;;14.25;8.43;;;21.80;52.50;;;;;;5025937;28;20103;-52
2023/06/07 08:29:17;;;;;;;10.10;6.82;;;21.70;52.30;;;;;;5015972;28;20502;-53
2023/06/07 08:31:50;;;;;;;11.10;8.52;;;21.70;52.30;;;;;;5031524;28;20037;-53
2023/06/07 08:34:19;;;;;;;11.38;9.02;;;21.70;52.30;;;;;;5025123;28;20465;-52
2023/06/07 08:36:47;;;;;;;11.80;8.18;;;21.70;52.20;;;;;;5033266;28;20452;-52
2023/06/07 08:39:14;;;;;;;10.73;7.40;;;21.70;52.40;;;;;;5032963;28;20112;-49
2023/06/07 08:41:51;;;;;;;12.52;7.78;;;21.70;52.30;;;;;;5027544;28;20565;-51
2023/06/07 08:44:17;;;;;;;11.30;8.25;;;21.70;52.10;;;;;;5031528;28;20080;-50
2023/06/07 08:46:46;;;;;;;9.18;8.15;;;21.70;52.00;;;;;;5032294;28;20052;-53
2023/06/07 08:49:18;;;;;;;12.93;7.72;;;21.70;52.00;;;;;;5030666;28;20570;-50
2023/06/07 08:51:51;;;;;;;12.93;8.13;;;21.70;52.30;;;;;;5025048;28;20045;-51
2023/06/07 08:54:42;;;;;;;12.32;7.97;;;21.70;52.00;;;;;;5027157;28;20045;-48
2023/06/07 08:57:16;;;;;;;10.07;7.97;;;21.80;52.00;;;;;;5027086;28;20048;-53
2023/06/07 08:59:49;;;;;;;10.38;8.00;;;21.80;52.00;;;;;;5032578;28;20052;-49
2023/06/07 09:02:20;;;;;;;12.93;7.50;;;21.70;51.90;;;;;;5031437;28;20516;-51
2023/06/07 09:04:49;;;;;;;13.93;7.97;;;21.80;52.00;;;;;;5019137;28;20137;-51
2023/06/07 09:07:19;;;;;;;15.98;8.07;;;21.90;51.90;;;;;;5030414;28;20281;-50
2023/06/07 09:09:56;;;;;;;11.70;7.60;;;21.90;51.70;;;;;;5032437;28;20044;-52
2023/06/07 09:12:22;;;;;;;13.23;7.25;;;21.90;51.60;;;;;;5022148;28;20495;-53
2023/06/07 09:14:53;;;;;;;11.30;8.40;;;21.90;51.30;;;;;;5029205;28;20084;-49
2023/06/07 09:17:44;;;;;;;11.85;7.43;;;21.80;51.20;;;;;;5032016;28;20875;-50
2023/06/07 09:20:25;;;;;;;10.48;8.10;;;21.90;51.60;;;;;;5029645;28;20573;-49
2023/06/07 09:23:03;;;;;;;13.25;7.60;;;21.90;51.50;;;;;;5025025;28;20069;-50
2023/06/07 09:25:37;;;;;;;11.52;7.78;;;21.90;51.40;;;;;;5005448;28;20111;-48
2023/06/07 09:28:10;;;;;;;11.98;7.80;;;21.90;51.50;;;;;;5028971;28;20045;-50
2023/06/07 09:30:54;;;;;;;10.00;7.35;;;21.90;51.50;;;;;;5031878;28;20045;-49
2023/06/07 09:33:33;;;;;;;9.65;7.93;;;22.00;51.70;;;;;;5031976;28;20045;-51
2023/06/07 09:36:20;;;;;;;15.07;8.38;;;22.00;52.00;;;;;;5026709;28;20132;-49
2023/06/07 09:38:49;;;;;;;11.18;7.72;;;22.00;52.80;;;;;;5026409;28;20124;-50
2023/06/07 09:41:16;;;;;;;10.52;8.20;;;22.00;52.50;;;;;;5031874;28;20049;-48
2023/06/07 09:43:50;;;;;;;13.70;8.00;;;22.10;52.60;;;;;;5026307;28;20072;-52
2023/06/07 09:46:20;;;;;;;12.50;8.43;;;22.10;52.60;;;;;;5030899;28;20124;-53
2023/06/07 09:48:52;;;;;;;13.73;8.30;;;22.00;52.80;;;;;;5032239;28;20492;-53
2023/06/07 09:51:21;;;;;;;12.73;8.75;;;22.00;52.70;;;;;;5012924;28;20579;-53
2023/06/07 09:53:52;;;;;;;12.82;8.95;;;21.90;52.90;;;;;;5022765;28;20042;-53
2023/06/07 09:56:22;;;;;;;14.95;8.45;;;21.80;53.70;;;;;;5028935;28;20056;-53
2023/06/07 09:59:08;;;;;;;11.52;8.38;;;21.70;53.80;;;;;;5031881;28;20046;-53
2023/06/07 10:01:38;;;;;;;13.27;8.98;;;21.60;53.60;;;;;;5031507;28;20079;-52
2023/06/07 10:04:08;;;;;;;10.30;8.07;;;21.40;54.00;;;;;;5023863;28;20548;-52
2023/06/07 10:06:40;;;;;;;13.10;8.27;;;21.40;54.40;;;;;;5023480;28;20041;-53
2023/06/07 10:09:08;;;;;;;12.70;8.65;;;21.30;54.60;;;;;;5031498;28;20087;-50
2023/06/07 10:11:38;;;;;;;13.68;9.57;;;21.20;55.40;;;;;;4997101;28;20041;-52
2023/06/07 10:14:10;;;;;;;12.52;8.43;;;21.10;55.00;;;;;;5013285;28;20133;-52
2023/06/07 10:16:42;;;;;;;12.30;8.63;;;21.10;56.00;;;;;;5022045;28;20065;-51
2023/06/07 10:19:23;;;;;;;15.68;8.90;;;21.00;55.90;;;;;;5031161;28;20045;-52
2023/06/07 10:21:55;;;;;;;13.75;8.13;;;21.00;56.80;;;;;;5012483;28;20572;-52
2023/06/07 10:24:39;;;;;;;13.25;8.27;;;21.00;56.40;;;;;;5026065;28;20034;-50
2023/06/07 10:27:17;;;;;;;11.38;8.45;;;21.00;56.60;;;;;;5027248;28;20047;-53
2023/06/07 10:30:00;;;;;;;13.43;8.63;;;20.90;56.40;;;;;;5031203;28;20037;-51
2023/06/07 10:32:34;;;;;;;14.57;8.63;;;21.00;56.60;;;;;;5030988;28;20806;-52
2023/06/07 10:35:06;;;;;;;14.93;9.35;;;21.00;56.90;;;;;;5013570;28;20045;-50
2023/06/07 10:37:40;;;;;;;13.27;8.55;;;20.90;57.00;;;;;;5030932;28;20052;-52
2023/06/07 10:40:11;;;;;;;15.55;8.45;;;21.00;57.60;;;;;;5031177;28;20037;-49
2023/06/07 10:42:42;;;;;;;12.82;9.00;;;21.00;57.10;;;;;;5028828;28;20061;-51
2023/06/07 10:45:14;;;;;;;13.23;9.02;;;21.00;57.00;;;;;;5029911;28;20038;-52
2023/06/07 10:47:43;;;;;;;12.80;9.70;;;21.00;56.90;;;;;;5029683;28;20037;-53
2023/06/07 10:50:28;;;;;;;16.83;9.77;;;21.00;56.80;;;;;;5027592;28;20045;-52
2023/06/07 10:53:03;;;;;;;17.27;9.90;;;21.00;57.10;;;;;;5026194;28;20091;-51
2023/06/07 10:55:36;;;;;;;13.10;9.20;;;20.90;56.80;;;;;;5024594;28;20037;-49
2023/06/07 10:58:28;;;;;;;14.40;9.35;;;20.90;57.20;;;;;;5031164;28;20048;-52
2023/06/07 11:00:56;;;;;;;12.82;8.68;;;20.80;57.50;;;;;;5030883;28;20045;-53
2023/06/07 11:03:27;;;;;;;14.10;9.25;;;20.80;58.10;;;;;;5031718;28;20045;-53
2023/06/07 11:05:57;;;;;;;13.25;9.00;;;20.70;58.80;;;;;;5030157;28;20060;-52
2023/06/07 11:08:36;;;;;;;13.25;9.55;;;20.80;58.80;;;;;;5030889;28;20054;-53
2023/06/07 11:11:23;;;;;;;10.60;8.32;;;20.90;58.80;;;;;;5026805;28;20099;-53
2023/06/07 11:13:55;;;;;;;14.57;9.40;;;21.00;58.70;;;;;;5023829;28;20124;-54
2023/06/07 11:16:23;;;;;;;15.35;9.35;;;21.00;58.30;;;;;;5012275;28;20045;-52
2023/06/07 11:18:56;;;;;;;15.03;9.97;;;21.10;58.20;;;;;;5030855;28;20490;-52
2023/06/07 11:21:28;;;;;;;14.38;9.32;;;21.10;58.60;;;;;;5027447;28;20045;-52
2023/06/07 11:24:13;;;;;;;13.82;9.57;;;21.20;58.40;;;;;;5026160;28;20057;-50
2023/06/07 11:26:45;;;;;;;13.70;9.40;;;21.20;57.90;;;;;;5026911;28;20413;-53
2023/06/07 11:29:17;;;;;;;13.10;8.93;;;21.20;57.90;;;;;;5034714;28;20072;-53
2023/06/07 11:31:48;;;;;;;14.80;10.15;;;21.30;58.10;;;;;;5033346;28;20575;-52
2023/06/07 11:34:23;;;;;;;13.23;9.43;;;21.30;58.30;;;;;;5033301;28;20053;-53
2023/06/07 11:36:49;;;;;;;;;;;21.20;58.10;;;;;;5034939;28;20054;-52
2023/06/07 11:39:31;;;;;;;15.43;9.75;;;21.30;57.40;;;;;;5034503;28;19948;-52
2023/06/07 11:41:58;;;;;;;12.13;10.10;;;21.30;57.40;;;;;;5036402;28;20053;-50
2023/06/07 11:44:28;;;;;;;14.13;10.20;;;21.30;57.50;;;;;;5034144;28;20498;-52
2023/06/07 11:46:56;;;;;;;11.25;9.02;;;21.20;57.60;;;;;;5033497;28;20128;-48
2023/06/07 11:49:23;;;;;;;12.98;9.60;;;21.20;58.30;;;;;;5028894;28;20410;-49
2023/06/07 11:51:55;;;;;;;12.27;10.98;;;21.20;58.40;;;;;;5033981;28;20124;-53
2023/06/07 11:54:24;;;;;;;15.15;10.32;;;21.10;57.70;;;;;;5027590;28;20117;-51
2023/06/07 11:56:53;;;;;;;12.20;9.57;;;21.10;57.90;;;;;;5033900;28;20056;-52
2023/06/07 11:59:23;;;;;;;10.98;9.07;;;21.10;58.40;;;;;;5033968;28;20049;-52
2023/06/07 12:01:54;;;;;;;15.18;9.75;;;21.10;58.30;;;;;;5033944;28;20602;-52
2023/06/07 12:04:23;;;;;;;13.90;9.43;;;21.20;59.10;;;;;;5029848;28;20052;-51
2023/06/07 12:06:50;;;;;;;12.90;9.63;;;21.30;58.80;;;;;;5033464;28;20103;-50
2023/06/07 12:09:18;;;;;;;13.77;9.57;;;21.30;58.30;;;;;;5033963;28;20046;-47
2023/06/07 12:11:47;;;;;;;12.18;8.35;;;21.40;58.30;;;;;;5022764;28;20490;-51
2023/06/07 12:14:30;;;;;;;12.98;9.90;;;21.50;58.10;;;;;;5030000;28;20167;-50
2023/06/07 12:17:03;;;;;;;12.82;9.70;;;21.60;58.40;;;;;;5027800;28;20047;-51
2023/06/07 12:19:37;;;;;;;12.52;9.88;;;21.70;58.10;;;;;;5031139;28;20145;-52
2023/06/07 12:22:08;;;;;;;13.07;9.65;;;21.80;57.90;;;;;;5029927;28;20045;-52
2023/06/07 12:24:38;;;;;;;15.07;10.57;;;21.90;57.40;;;;;;5026824;28;20046;-52
2023/06/07 12:27:11;;;;;;;;;;;22.00;57.10;;;;;;5033973;28;20076;-52
2023/06/07 12:29:43;;;;;;;13.73;8.88;;;22.20;57.00;;;;;;5033401;28;20590;-50
2023/06/07 12:32:17;;;;;;;14.55;9.40;;;22.30;57.10;;;;;;5031413;28;20041;-49
2023/06/07 12:34:49;;;;;;;13.05;8.45;;;22.40;56.60;;;;;;5027671;28;20072;-53
2023/06/07 12:37:17;;;;;;;11.23;8.80;;;22.60;56.20;;;;;;5033126;28;20049;-49
2023/06/07 12:39:47;;;;;;;10.60;9.45;;;22.70;56.10;;;;;;5033436;28;20041;-48
2023/06/07 12:42:19;;;;;;;;;;;22.90;55.80;;;;;;5031160;28;20045;-49
2023/06/07 12:44:54;;;;;;;10.75;8.93;;;23.10;55.70;;;;;;5028068;28;19936;-50
2023/06/07 12:47:22;;;;;;;14.77;9.02;;;23.30;55.60;;;;;;5031295;28;20049;-52
2023/06/07 12:49:54;;;;;;;13.57;8.75;;;23.50;55.50;;;;;;5033066;28;20056;-53
2023/06/07 12:52:23;;;;;;;10.43;8.70;;;23.70;54.60;;;;;;5026792;28;20073;-51
2023/06/07 12:54:50;;;;;;;10.43;9.35;;;24.00;54.10;;;;;;5028339;28;20068;-52
2023/06/07 12:57:18;;;;;;;10.80;9.30;;;24.20;54.00;;;;;;5032585;28;20073;-50
2023/06/07 12:59:44;;;;;;;14.73;10.07;;;24.40;53.80;;;;;;5032931;28;20107;-52
2023/06/07 13:02:11;;;;;;;12.25;9.57;;;24.60;52.80;;;;;;5034549;28;20082;-51